sensor_id;sensor_type;location;lat;lon;timestamp;P1;durP1;ratioP1;P2;durP2;ratioP2
77226;SDS011;66234;47.642;19.144;2023-10-09T00:02:26;2.30;;;0.35;;
77226;SDS011;66234;47.642;19.144;2023-10-09T00:05:29;1.13;;;0.20;;
77226;SDS011;66234;47.642;19.144;2023-10-09T00:09:01;1.00;;;0.20;;
77226;SDS011;66234;47.642;19.144;2023-10-09T00:12:17;1.33;;;0.40;;
77226;SDS011;66234;47.642;19.144;2023-10-09T00:15:32;3.23;;;0.43;;
77226;SDS011;66234;47.642;19.144;2023-10-09T00:18:35;1.35;;;0.50;;
77226;SDS011;66234;47.642;19.144;2023-10-09T00:21:39;3.22;;;0.35;;
77226;SDS011;66234;47.642;19.144;2023-10-09T00:24:46;1.30;;;0.43;;
77226;SDS011;66234;47.642;19.144;2023-10-09T00:27:52;2.53;;;0.80;;
77226;SDS011;66234;47.642;19.144;2023-10-09T00:30:54;0.93;;;0.30;;
77226;SDS011;66234;47.642;19.144;2023-10-09T00:33:57;1.55;;;0.40;;
77226;SDS011;66234;47.642;19.144;2023-10-09T00:37:10;2.75;;;0.52;;
77226;SDS011;66234;47.642;19.144;2023-10-09T00:40:18;3.03;;;0.43;;
77226;SDS011;66234;47.642;19.144;2023-10-09T00:43:29;2.13;;;0.60;;
77226;SDS011;66234;47.642;19.144;2023-10-09T00:46:33;1.83;;;0.63;;
77226;SDS011;66234;47.642;19.144;2023-10-09T00:49:37;1.90;;;0.70;;
77226;SDS011;66234;47.642;19.144;2023-10-09T00:52:45;1.30;;;0.50;;
77226;SDS011;66234;47.642;19.144;2023-10-09T00:55:53;0.88;;;0.32;;
77226;SDS011;66234;47.642;19.144;2023-10-09T00:58:59;3.63;;;0.60;;
77226;SDS011;66234;47.642;19.144;2023-10-09T01:02:10;1.93;;;0.60;;
77226;SDS011;66234;47.642;19.144;2023-10-09T01:05:12;1.65;;;0.30;;
77226;SDS011;66234;47.642;19.144;2023-10-09T01:08:21;1.98;;;0.55;;
77226;SDS011;66234;47.642;19.144;2023-10-09T01:11:32;1.73;;;0.57;;
77226;SDS011;66234;47.642;19.144;2023-10-09T01:14:36;3.80;;;0.73;;
77226;SDS011;66234;47.642;19.144;2023-10-09T01:17:40;2.43;;;0.57;;
77226;SDS011;66234;47.642;19.144;2023-10-09T01:20:47;1.88;;;0.65;;
77226;SDS011;66234;47.642;19.144;2023-10-09T01:23:50;2.25;;;0.70;;
77226;SDS011;66234;47.642;19.144;2023-10-09T01:27:11;1.50;;;0.90;;
77226;SDS011;66234;47.642;19.144;2023-10-09T01:30:19;2.33;;;0.83;;
77226;SDS011;66234;47.642;19.144;2023-10-09T01:33:22;3.17;;;0.60;;
77226;SDS011;66234;47.642;19.144;2023-10-09T01:36:26;3.55;;;0.93;;
77226;SDS011;66234;47.642;19.144;2023-10-09T01:39:35;1.55;;;0.70;;
77226;SDS011;66234;47.642;19.144;2023-10-09T01:42:43;3.03;;;0.63;;
77226;SDS011;66234;47.642;19.144;2023-10-09T01:45:48;2.53;;;0.60;;
77226;SDS011;66234;47.642;19.144;2023-10-09T01:48:51;3.03;;;0.47;;
77226;SDS011;66234;47.642;19.144;2023-10-09T01:51:56;2.17;;;0.70;;
77226;SDS011;66234;47.642;19.144;2023-10-09T01:55:06;3.03;;;0.60;;
77226;SDS011;66234;47.642;19.144;2023-10-09T01:58:29;1.80;;;0.88;;
77226;SDS011;66234;47.642;19.144;2023-10-09T02:01:35;5.57;;;1.13;;
77226;SDS011;66234;47.642;19.144;2023-10-09T02:04:43;1.00;;;0.37;;
77226;SDS011;66234;47.642;19.144;2023-10-09T02:07:45;2.15;;;0.60;;
77226;SDS011;66234;47.642;19.144;2023-10-09T02:10:54;1.70;;;0.65;;
77226;SDS011;66234;47.642;19.144;2023-10-09T02:13:58;1.30;;;0.65;;
77226;SDS011;66234;47.642;19.144;2023-10-09T02:17:03;1.00;;;0.50;;
77226;SDS011;66234;47.642;19.144;2023-10-09T02:20:11;2.27;;;0.50;;
77226;SDS011;66234;47.642;19.144;2023-10-09T02:23:20;1.02;;;0.47;;
77226;SDS011;66234;47.642;19.144;2023-10-09T02:26:27;1.27;;;0.50;;
77226;SDS011;66234;47.642;19.144;2023-10-09T02:29:34;1.85;;;0.30;;
77226;SDS011;66234;47.642;19.144;2023-10-09T02:32:44;5.93;;;0.70;;
77226;SDS011;66234;47.642;19.144;2023-10-09T02:35:50;1.90;;;0.60;;
77226;SDS011;66234;47.642;19.144;2023-10-09T02:38:53;1.88;;;0.60;;
77226;SDS011;66234;47.642;19.144;2023-10-09T02:41:58;0.85;;;0.40;;
77226;SDS011;66234;47.642;19.144;2023-10-09T02:45:10;2.20;;;0.73;;
77226;SDS011;66234;47.642;19.144;2023-10-09T02:48:18;4.17;;;0.60;;
77226;SDS011;66234;47.642;19.144;2023-10-09T02:51:28;1.77;;;0.30;;
77226;SDS011;66234;47.642;19.144;2023-10-09T02:54:33;2.47;;;0.82;;
77226;SDS011;66234;47.642;19.144;2023-10-09T02:57:43;0.90;;;0.45;;
77226;SDS011;66234;47.642;19.144;2023-10-09T03:00:47;2.38;;;0.95;;
77226;SDS011;66234;47.642;19.144;2023-10-09T03:03:51;2.23;;;0.90;;
77226;SDS011;66234;47.642;19.144;2023-10-09T03:06:53;2.47;;;0.93;;
77226;SDS011;66234;47.642;19.144;2023-10-09T03:09:59;1.70;;;0.82;;
77226;SDS011;66234;47.642;19.144;2023-10-09T03:13:02;2.35;;;1.00;;
77226;SDS011;66234;47.642;19.144;2023-10-09T03:16:07;2.78;;;0.70;;
77226;SDS011;66234;47.642;19.144;2023-10-09T03:19:11;2.33;;;0.83;;
77226;SDS011;66234;47.642;19.144;2023-10-09T03:22:15;3.10;;;0.73;;
77226;SDS011;66234;47.642;19.144;2023-10-09T03:25:18;3.25;;;0.70;;
77226;SDS011;66234;47.642;19.144;2023-10-09T03:28:20;1.30;;;0.60;;
77226;SDS011;66234;47.642;19.144;2023-10-09T03:31:23;1.98;;;0.60;;
77226;SDS011;66234;47.642;19.144;2023-10-09T03:34:26;4.43;;;1.00;;
77226;SDS011;66234;47.642;19.144;2023-10-09T03:37:28;2.57;;;1.00;;
77226;SDS011;66234;47.642;19.144;2023-10-09T03:40:40;4.63;;;0.80;;
77226;SDS011;66234;47.642;19.144;2023-10-09T03:43:44;3.53;;;0.55;;
77226;SDS011;66234;47.642;19.144;2023-10-09T03:46:48;3.17;;;1.08;;
77226;SDS011;66234;47.642;19.144;2023-10-09T03:49:53;3.50;;;0.90;;
77226;SDS011;66234;47.642;19.144;2023-10-09T03:52:56;2.70;;;0.70;;
77226;SDS011;66234;47.642;19.144;2023-10-09T03:55:59;2.85;;;0.80;;
77226;SDS011;66234;47.642;19.144;2023-10-09T03:59:02;3.30;;;1.00;;
77226;SDS011;66234;47.642;19.144;2023-10-09T04:02:06;1.85;;;0.63;;
77226;SDS011;66234;47.642;19.144;2023-10-09T04:05:09;2.47;;;0.60;;
77226;SDS011;66234;47.642;19.144;2023-10-09T04:08:12;8.37;;;1.00;;
77226;SDS011;66234;47.642;19.144;2023-10-09T04:11:22;3.22;;;1.10;;
77226;SDS011;66234;47.642;19.144;2023-10-09T04:14:25;2.22;;;0.77;;
77226;SDS011;66234;47.642;19.144;2023-10-09T04:17:34;2.28;;;0.63;;
77226;SDS011;66234;47.642;19.144;2023-10-09T04:20:37;2.43;;;1.17;;
77226;SDS011;66234;47.642;19.144;2023-10-09T04:23:59;3.07;;;1.00;;
77226;SDS011;66234;47.642;19.144;2023-10-09T04:27:17;3.38;;;0.80;;
77226;SDS011;66234;47.642;19.144;2023-10-09T04:30:19;4.07;;;0.80;;
77226;SDS011;66234;47.642;19.144;2023-10-09T04:33:26;2.15;;;1.15;;
77226;SDS011;66234;47.642;19.144;2023-10-09T04:36:43;2.73;;;1.20;;
77226;SDS011;66234;47.642;19.144;2023-10-09T04:39:59;3.50;;;1.30;;
77226;SDS011;66234;47.642;19.144;2023-10-09T04:43:15;5.75;;;1.58;;
77226;SDS011;66234;47.642;19.144;2023-10-09T04:46:23;3.58;;;1.45;;
77226;SDS011;66234;47.642;19.144;2023-10-09T04:49:29;5.47;;;1.77;;
77226;SDS011;66234;47.642;19.144;2023-10-09T04:52:31;4.83;;;1.33;;
77226;SDS011;66234;47.642;19.144;2023-10-09T04:55:34;6.23;;;1.30;;
77226;SDS011;66234;47.642;19.144;2023-10-09T04:58:41;3.75;;;1.00;;
77226;SDS011;66234;47.642;19.144;2023-10-09T05:01:44;5.13;;;1.55;;
77226;SDS011;66234;47.642;19.144;2023-10-09T05:04:49;2.72;;;1.02;;
77226;SDS011;66234;47.642;19.144;2023-10-09T05:08:15;5.37;;;1.60;;
77226;SDS011;66234;47.642;19.144;2023-10-09T05:11:22;1.57;;;0.90;;
77226;SDS011;66234;47.642;19.144;2023-10-09T05:14:55;2.60;;;0.80;;
77226;SDS011;66234;47.642;19.144;2023-10-09T05:18:11;4.85;;;1.35;;
77226;SDS011;66234;47.642;19.144;2023-10-09T05:21:18;2.85;;;1.00;;
77226;SDS011;66234;47.642;19.144;2023-10-09T05:24:33;4.00;;;1.00;;
77226;SDS011;66234;47.642;19.144;2023-10-09T05:27:46;3.90;;;0.90;;
77226;SDS011;66234;47.642;19.144;2023-10-09T05:30:57;7.53;;;1.02;;
77226;SDS011;66234;47.642;19.144;2023-10-09T05:34:10;2.10;;;0.50;;
77226;SDS011;66234;47.642;19.144;2023-10-09T05:37:14;2.40;;;0.82;;
77226;SDS011;66234;47.642;19.144;2023-10-09T05:40:20;6.03;;;1.30;;
77226;SDS011;66234;47.642;19.144;2023-10-09T05:43:26;1.63;;;0.60;;
77226;SDS011;66234;47.642;19.144;2023-10-09T05:46:47;1.75;;;0.55;;
77226;SDS011;66234;47.642;19.144;2023-10-09T05:50:12;3.10;;;0.55;;
77226;SDS011;66234;47.642;19.144;2023-10-09T05:53:17;4.43;;;0.90;;
77226;SDS011;66234;47.642;19.144;2023-10-09T05:56:40;4.83;;;0.93;;
77226;SDS011;66234;47.642;19.144;2023-10-09T06:00:01;3.20;;;1.00;;
77226;SDS011;66234;47.642;19.144;2023-10-09T06:03:21;1.40;;;0.43;;
77226;SDS011;66234;47.642;19.144;2023-10-09T06:06:51;1.83;;;0.60;;
77226;SDS011;66234;47.642;19.144;2023-10-09T06:10:14;3.95;;;1.05;;
77226;SDS011;66234;47.642;19.144;2023-10-09T06:13:35;1.93;;;0.70;;
77226;SDS011;66234;47.642;19.144;2023-10-09T06:16:42;3.37;;;0.50;;
77226;SDS011;66234;47.642;19.144;2023-10-09T06:19:45;5.40;;;0.80;;
77226;SDS011;66234;47.642;19.144;2023-10-09T06:22:51;3.45;;;0.88;;
77226;SDS011;66234;47.642;19.144;2023-10-09T06:26:13;2.33;;;0.80;;
77226;SDS011;66234;47.642;19.144;2023-10-09T06:29:29;7.40;;;1.30;;
77226;SDS011;66234;47.642;19.144;2023-10-09T06:32:38;3.93;;;1.20;;
77226;SDS011;66234;47.642;19.144;2023-10-09T06:35:51;6.63;;;0.75;;
77226;SDS011;66234;47.642;19.144;2023-10-09T06:38:57;5.35;;;1.25;;
77226;SDS011;66234;47.642;19.144;2023-10-09T06:42:17;3.75;;;1.00;;
77226;SDS011;66234;47.642;19.144;2023-10-09T06:45:35;4.47;;;1.00;;
77226;SDS011;66234;47.642;19.144;2023-10-09T06:48:47;2.27;;;0.60;;
77226;SDS011;66234;47.642;19.144;2023-10-09T06:51:59;2.72;;;1.00;;
77226;SDS011;66234;47.642;19.144;2023-10-09T06:55:17;3.55;;;0.85;;
77226;SDS011;66234;47.642;19.144;2023-10-09T06:58:23;1.90;;;0.68;;
77226;SDS011;66234;47.642;19.144;2023-10-09T07:01:28;2.47;;;0.80;;
77226;SDS011;66234;47.642;19.144;2023-10-09T07:04:42;5.03;;;0.80;;
77226;SDS011;66234;47.642;19.144;2023-10-09T07:07:47;3.25;;;0.65;;
77226;SDS011;66234;47.642;19.144;2023-10-09T07:11:00;3.05;;;0.63;;
77226;SDS011;66234;47.642;19.144;2023-10-09T07:14:22;4.30;;;0.57;;
77226;SDS011;66234;47.642;19.144;2023-10-09T07:17:35;3.00;;;1.20;;
77226;SDS011;66234;47.642;19.144;2023-10-09T07:20:37;9.70;;;0.93;;
77226;SDS011;66234;47.642;19.144;2023-10-09T07:23:40;2.70;;;0.47;;
77226;SDS011;66234;47.642;19.144;2023-10-09T07:26:50;1.88;;;0.60;;
77226;SDS011;66234;47.642;19.144;2023-10-09T07:29:56;3.00;;;0.60;;
77226;SDS011;66234;47.642;19.144;2023-10-09T07:32:59;2.57;;;0.73;;
77226;SDS011;66234;47.642;19.144;2023-10-09T07:36:14;2.10;;;0.60;;
77226;SDS011;66234;47.642;19.144;2023-10-09T07:39:16;2.42;;;0.80;;
77226;SDS011;66234;47.642;19.144;2023-10-09T07:42:19;3.95;;;0.60;;
77226;SDS011;66234;47.642;19.144;2023-10-09T07:45:29;4.65;;;0.77;;
77226;SDS011;66234;47.642;19.144;2023-10-09T07:48:35;1.43;;;0.60;;
77226;SDS011;66234;47.642;19.144;2023-10-09T07:51:56;18.37;;;0.97;;
77226;SDS011;66234;47.642;19.144;2023-10-09T07:55:01;6.32;;;0.82;;
77226;SDS011;66234;47.642;19.144;2023-10-09T07:58:08;2.80;;;0.50;;
77226;SDS011;66234;47.642;19.144;2023-10-09T08:01:14;2.95;;;0.40;;
77226;SDS011;66234;47.642;19.144;2023-10-09T08:04:41;2.53;;;0.43;;
77226;SDS011;66234;47.642;19.144;2023-10-09T08:07:46;3.87;;;0.60;;
77226;SDS011;66234;47.642;19.144;2023-10-09T08:11:39;4.53;;;0.63;;
77226;SDS011;66234;47.642;19.144;2023-10-09T08:14:43;4.63;;;0.40;;
77226;SDS011;66234;47.642;19.144;2023-10-09T08:17:48;1.83;;;0.45;;
77226;SDS011;66234;47.642;19.144;2023-10-09T08:20:56;2.80;;;0.40;;
77226;SDS011;66234;47.642;19.144;2023-10-09T08:23:58;1.27;;;0.37;;
77226;SDS011;66234;47.642;19.144;2023-10-09T08:27:08;2.33;;;0.60;;
77226;SDS011;66234;47.642;19.144;2023-10-09T08:30:34;14.95;;;0.70;;
77226;SDS011;66234;47.642;19.144;2023-10-09T08:33:55;2.75;;;0.40;;
77226;SDS011;66234;47.642;19.144;2023-10-09T08:37:04;2.13;;;0.50;;
77226;SDS011;66234;47.642;19.144;2023-10-09T08:40:07;3.40;;;1.00;;
77226;SDS011;66234;47.642;19.144;2023-10-09T08:46:18;2.25;;;0.57;;
77226;SDS011;66234;47.642;19.144;2023-10-09T08:49:23;7.28;;;0.73;;
77226;SDS011;66234;47.642;19.144;2023-10-09T08:52:26;14.77;;;1.50;;
77226;SDS011;66234;47.642;19.144;2023-10-09T08:55:45;1.57;;;0.47;;
77226;SDS011;66234;47.642;19.144;2023-10-09T08:58:58;3.00;;;0.50;;
77226;SDS011;66234;47.642;19.144;2023-10-09T09:02:04;2.80;;;0.60;;
77226;SDS011;66234;47.642;19.144;2023-10-09T09:05:16;1.85;;;0.40;;
77226;SDS011;66234;47.642;19.144;2023-10-09T09:08:24;3.50;;;0.70;;
77226;SDS011;66234;47.642;19.144;2023-10-09T09:11:28;2.07;;;0.50;;
77226;SDS011;66234;47.642;19.144;2023-10-09T09:14:38;2.45;;;0.63;;
77226;SDS011;66234;47.642;19.144;2023-10-09T09:17:41;3.00;;;0.57;;
77226;SDS011;66234;47.642;19.144;2023-10-09T09:20:44;2.45;;;0.40;;
77226;SDS011;66234;47.642;19.144;2023-10-09T09:27:02;5.50;;;0.80;;
77226;SDS011;66234;47.642;19.144;2023-10-09T09:30:24;1.50;;;0.65;;
77226;SDS011;66234;47.642;19.144;2023-10-09T09:33:34;1.38;;;0.50;;
77226;SDS011;66234;47.642;19.144;2023-10-09T09:37:03;1.17;;;0.43;;
77226;SDS011;66234;47.642;19.144;2023-10-09T09:40:07;3.17;;;0.77;;
77226;SDS011;66234;47.642;19.144;2023-10-09T09:43:36;2.40;;;0.57;;
77226;SDS011;66234;47.642;19.144;2023-10-09T09:46:42;1.45;;;0.47;;
77226;SDS011;66234;47.642;19.144;2023-10-09T09:49:46;5.20;;;0.60;;
77226;SDS011;66234;47.642;19.144;2023-10-09T09:52:51;3.00;;;0.57;;
77226;SDS011;66234;47.642;19.144;2023-10-09T09:55:58;2.97;;;0.60;;
77226;SDS011;66234;47.642;19.144;2023-10-09T09:59:02;1.20;;;0.43;;
77226;SDS011;66234;47.642;19.144;2023-10-09T10:02:10;3.45;;;1.05;;
77226;SDS011;66234;47.642;19.144;2023-10-09T10:05:23;3.58;;;0.90;;
77226;SDS011;66234;47.642;19.144;2023-10-09T10:08:32;3.00;;;0.80;;
77226;SDS011;66234;47.642;19.144;2023-10-09T10:11:47;4.13;;;0.77;;
77226;SDS011;66234;47.642;19.144;2023-10-09T10:14:57;4.97;;;0.67;;
77226;SDS011;66234;47.642;19.144;2023-10-09T10:31:55;1.97;;;0.67;;
77226;SDS011;66234;47.642;19.144;2023-10-09T10:35:11;5.50;;;0.60;;
77226;SDS011;66234;47.642;19.144;2023-10-09T10:38:29;2.33;;;0.43;;
77226;SDS011;66234;47.642;19.144;2023-10-09T10:41:39;1.35;;;0.63;;
77226;SDS011;66234;47.642;19.144;2023-10-09T10:44:53;1.23;;;0.50;;
77226;SDS011;66234;47.642;19.144;2023-10-09T10:47:56;2.90;;;0.47;;
77226;SDS011;66234;47.642;19.144;2023-10-09T10:51:01;3.33;;;0.60;;
77226;SDS011;66234;47.642;19.144;2023-10-09T10:54:04;2.67;;;0.88;;
77226;SDS011;66234;47.642;19.144;2023-10-09T10:57:26;1.85;;;0.55;;
77226;SDS011;66234;47.642;19.144;2023-10-09T11:00:31;3.57;;;0.87;;
77226;SDS011;66234;47.642;19.144;2023-10-09T11:03:53;4.23;;;0.50;;
77226;SDS011;66234;47.642;19.144;2023-10-09T11:06:59;2.85;;;0.65;;
77226;SDS011;66234;47.642;19.144;2023-10-09T11:10:11;2.83;;;1.25;;
77226;SDS011;66234;47.642;19.144;2023-10-09T11:13:24;3.75;;;0.93;;
77226;SDS011;66234;47.642;19.144;2023-10-09T11:16:37;4.77;;;1.03;;
77226;SDS011;66234;47.642;19.144;2023-10-09T11:19:50;4.30;;;0.97;;
77226;SDS011;66234;47.642;19.144;2023-10-09T11:22:55;5.90;;;1.08;;
77226;SDS011;66234;47.642;19.144;2023-10-09T11:26:13;1.33;;;0.70;;
77226;SDS011;66234;47.642;19.144;2023-10-09T11:29:33;4.90;;;1.45;;
77226;SDS011;66234;47.642;19.144;2023-10-09T11:32:46;5.03;;;1.30;;
77226;SDS011;66234;47.642;19.144;2023-10-09T11:35:55;5.53;;;1.43;;
77226;SDS011;66234;47.642;19.144;2023-10-09T11:39:02;3.10;;;0.70;;
77226;SDS011;66234;47.642;19.144;2023-10-09T11:42:22;4.40;;;0.88;;
77226;SDS011;66234;47.642;19.144;2023-10-09T11:45:38;2.35;;;0.82;;
77226;SDS011;66234;47.642;19.144;2023-10-09T11:48:41;2.60;;;0.87;;
77226;SDS011;66234;47.642;19.144;2023-10-09T11:52:09;2.17;;;0.60;;
77226;SDS011;66234;47.642;19.144;2023-10-09T11:55:32;5.25;;;1.20;;
77226;SDS011;66234;47.642;19.144;2023-10-09T11:58:35;2.80;;;1.00;;
77226;SDS011;66234;47.642;19.144;2023-10-09T12:01:45;3.47;;;0.90;;
77226;SDS011;66234;47.642;19.144;2023-10-09T12:04:55;1.20;;;0.87;;
77226;SDS011;66234;47.642;19.144;2023-10-09T12:07:58;1.83;;;0.40;;
77226;SDS011;66234;47.642;19.144;2023-10-09T12:11:03;3.15;;;0.50;;
77226;SDS011;66234;47.642;19.144;2023-10-09T12:14:11;6.82;;;0.60;;
77226;SDS011;66234;47.642;19.144;2023-10-09T12:17:13;3.28;;;0.73;;
77226;SDS011;66234;47.642;19.144;2023-10-09T12:20:16;2.73;;;1.47;;
77226;SDS011;66234;47.642;19.144;2023-10-09T12:23:36;4.60;;;0.70;;
77226;SDS011;66234;47.642;19.144;2023-10-09T12:26:39;3.53;;;0.77;;
77226;SDS011;66234;47.642;19.144;2023-10-09T12:29:44;3.25;;;0.90;;
77226;SDS011;66234;47.642;19.144;2023-10-09T12:32:51;2.38;;;0.95;;
77226;SDS011;66234;47.642;19.144;2023-10-09T12:35:55;2.47;;;0.80;;
77226;SDS011;66234;47.642;19.144;2023-10-09T12:39:04;2.13;;;0.60;;
77226;SDS011;66234;47.642;19.144;2023-10-09T12:42:08;1.70;;;0.50;;
77226;SDS011;66234;47.642;19.144;2023-10-09T12:45:11;2.88;;;0.70;;
77226;SDS011;66234;47.642;19.144;2023-10-09T12:48:15;2.78;;;1.02;;
77226;SDS011;66234;47.642;19.144;2023-10-09T12:51:17;2.17;;;0.80;;
77226;SDS011;66234;47.642;19.144;2023-10-09T12:54:20;2.37;;;0.83;;
77226;SDS011;66234;47.642;19.144;2023-10-09T12:57:29;4.38;;;0.60;;
77226;SDS011;66234;47.642;19.144;2023-10-09T13:00:35;3.53;;;0.55;;
77226;SDS011;66234;47.642;19.144;2023-10-09T13:03:46;2.42;;;0.50;;
77226;SDS011;66234;47.642;19.144;2023-10-09T13:06:52;2.43;;;0.80;;
77226;SDS011;66234;47.642;19.144;2023-10-09T13:09:56;3.47;;;0.90;;
77226;SDS011;66234;47.642;19.144;2023-10-09T13:13:10;3.20;;;0.90;;
77226;SDS011;66234;47.642;19.144;2023-10-09T13:16:15;3.45;;;1.05;;
77226;SDS011;66234;47.642;19.144;2023-10-09T13:19:28;3.33;;;0.93;;
77226;SDS011;66234;47.642;19.144;2023-10-09T13:22:30;4.97;;;1.17;;
77226;SDS011;66234;47.642;19.144;2023-10-09T13:25:33;2.80;;;1.30;;
77226;SDS011;66234;47.642;19.144;2023-10-09T13:28:42;5.10;;;0.90;;
77226;SDS011;66234;47.642;19.144;2023-10-09T13:31:47;2.17;;;0.75;;
77226;SDS011;66234;47.642;19.144;2023-10-09T13:34:50;3.70;;;1.13;;
77226;SDS011;66234;47.642;19.144;2023-10-09T13:37:53;2.50;;;0.87;;
77226;SDS011;66234;47.642;19.144;2023-10-09T13:40:58;2.37;;;1.10;;
77226;SDS011;66234;47.642;19.144;2023-10-09T13:44:06;1.65;;;0.70;;
77226;SDS011;66234;47.642;19.144;2023-10-09T13:47:09;3.58;;;1.00;;
77226;SDS011;66234;47.642;19.144;2023-10-09T13:50:24;3.72;;;0.85;;
77226;SDS011;66234;47.642;19.144;2023-10-09T13:53:35;4.07;;;0.90;;
77226;SDS011;66234;47.642;19.144;2023-10-09T13:56:38;10.83;;;1.30;;
77226;SDS011;66234;47.642;19.144;2023-10-09T13:59:41;4.88;;;1.13;;
77226;SDS011;66234;47.642;19.144;2023-10-09T14:02:53;3.20;;;0.90;;
77226;SDS011;66234;47.642;19.144;2023-10-09T14:05:56;3.92;;;1.25;;
77226;SDS011;66234;47.642;19.144;2023-10-09T14:09:03;4.47;;;1.70;;
77226;SDS011;66234;47.642;19.144;2023-10-09T14:12:06;5.50;;;1.60;;
77226;SDS011;66234;47.642;19.144;2023-10-09T14:15:10;4.72;;;1.05;;
77226;SDS011;66234;47.642;19.144;2023-10-09T14:18:19;2.53;;;0.90;;
77226;SDS011;66234;47.642;19.144;2023-10-09T14:21:21;1.65;;;0.82;;
77226;SDS011;66234;47.642;19.144;2023-10-09T14:24:27;2.63;;;1.10;;
77226;SDS011;66234;47.642;19.144;2023-10-09T14:27:35;5.77;;;1.00;;
77226;SDS011;66234;47.642;19.144;2023-10-09T14:30:38;6.40;;;1.30;;
77226;SDS011;66234;47.642;19.144;2023-10-09T14:33:48;2.22;;;1.00;;
77226;SDS011;66234;47.642;19.144;2023-10-09T14:36:55;5.47;;;2.42;;
77226;SDS011;66234;47.642;19.144;2023-10-09T14:39:57;7.40;;;2.67;;
77226;SDS011;66234;47.642;19.144;2023-10-09T14:43:01;4.77;;;2.33;;
77226;SDS011;66234;47.642;19.144;2023-10-09T14:46:05;5.35;;;2.28;;
77226;SDS011;66234;47.642;19.144;2023-10-09T14:49:13;4.28;;;2.50;;
77226;SDS011;66234;47.642;19.144;2023-10-09T14:52:16;4.70;;;2.22;;
77226;SDS011;66234;47.642;19.144;2023-10-09T14:55:19;3.17;;;1.80;;
77226;SDS011;66234;47.642;19.144;2023-10-09T14:58:31;4.23;;;1.80;;
77226;SDS011;66234;47.642;19.144;2023-10-09T15:01:37;14.50;;;10.85;;
77226;SDS011;66234;47.642;19.144;2023-10-09T15:04:40;6.13;;;4.18;;
77226;SDS011;66234;47.642;19.144;2023-10-09T15:07:42;5.43;;;2.90;;
77226;SDS011;66234;47.642;19.144;2023-10-09T15:10:49;4.70;;;2.27;;
77226;SDS011;66234;47.642;19.144;2023-10-09T15:13:54;8.00;;;2.50;;
77226;SDS011;66234;47.642;19.144;2023-10-09T15:17:00;4.07;;;2.47;;
77226;SDS011;66234;47.642;19.144;2023-10-09T15:20:03;4.25;;;1.88;;
77226;SDS011;66234;47.642;19.144;2023-10-09T15:23:12;3.42;;;1.50;;
77226;SDS011;66234;47.642;19.144;2023-10-09T15:26:14;6.80;;;2.87;;
77226;SDS011;66234;47.642;19.144;2023-10-09T15:29:19;5.13;;;2.53;;
77226;SDS011;66234;47.642;19.144;2023-10-09T15:32:25;8.52;;;2.70;;
77226;SDS011;66234;47.642;19.144;2023-10-09T15:35:28;6.90;;;2.25;;
77226;SDS011;66234;47.642;19.144;2023-10-09T15:38:31;6.65;;;2.88;;
77226;SDS011;66234;47.642;19.144;2023-10-09T15:41:33;6.70;;;3.33;;
77226;SDS011;66234;47.642;19.144;2023-10-09T15:44:37;7.60;;;2.60;;
77226;SDS011;66234;47.642;19.144;2023-10-09T15:47:39;4.75;;;2.08;;
77226;SDS011;66234;47.642;19.144;2023-10-09T15:50:45;5.35;;;2.55;;
77226;SDS011;66234;47.642;19.144;2023-10-09T15:53:51;5.63;;;2.30;;
77226;SDS011;66234;47.642;19.144;2023-10-09T15:56:55;6.07;;;2.30;;
77226;SDS011;66234;47.642;19.144;2023-10-09T16:00:14;8.17;;;2.37;;
77226;SDS011;66234;47.642;19.144;2023-10-09T16:03:20;3.88;;;1.85;;
77226;SDS011;66234;47.642;19.144;2023-10-09T16:06:23;5.88;;;2.10;;
77226;SDS011;66234;47.642;19.144;2023-10-09T16:09:29;4.15;;;2.28;;
77226;SDS011;66234;47.642;19.144;2023-10-09T16:12:33;17.57;;;7.27;;
77226;SDS011;66234;47.642;19.144;2023-10-09T16:15:40;10.90;;;5.50;;
77226;SDS011;66234;47.642;19.144;2023-10-09T16:18:44;10.27;;;4.55;;
77226;SDS011;66234;47.642;19.144;2023-10-09T16:21:47;6.90;;;3.95;;
77226;SDS011;66234;47.642;19.144;2023-10-09T16:24:50;8.90;;;4.28;;
77226;SDS011;66234;47.642;19.144;2023-10-09T16:27:54;7.90;;;3.37;;
77226;SDS011;66234;47.642;19.144;2023-10-09T16:30:58;7.93;;;3.63;;
77226;SDS011;66234;47.642;19.144;2023-10-09T16:34:02;5.65;;;3.33;;
77226;SDS011;66234;47.642;19.144;2023-10-09T16:37:06;4.10;;;2.50;;
77226;SDS011;66234;47.642;19.144;2023-10-09T16:40:10;8.02;;;4.22;;
77226;SDS011;66234;47.642;19.144;2023-10-09T16:43:15;14.60;;;7.00;;
77226;SDS011;66234;47.642;19.144;2023-10-09T16:46:19;15.43;;;7.73;;
77226;SDS011;66234;47.642;19.144;2023-10-09T16:49:25;15.18;;;8.50;;
77226;SDS011;66234;47.642;19.144;2023-10-09T16:52:28;17.65;;;9.02;;
77226;SDS011;66234;47.642;19.144;2023-10-09T16:55:32;19.65;;;8.43;;
77226;SDS011;66234;47.642;19.144;2023-10-09T16:58:36;17.47;;;8.13;;
77226;SDS011;66234;47.642;19.144;2023-10-09T17:01:40;17.07;;;8.67;;
77226;SDS011;66234;47.642;19.144;2023-10-09T17:04:44;18.48;;;9.07;;
77226;SDS011;66234;47.642;19.144;2023-10-09T17:07:48;26.13;;;13.73;;
77226;SDS011;66234;47.642;19.144;2023-10-09T17:10:51;21.33;;;13.93;;
77226;SDS011;66234;47.642;19.144;2023-10-09T17:13:54;25.80;;;15.17;;
77226;SDS011;66234;47.642;19.144;2023-10-09T17:17:00;21.17;;;12.03;;
77226;SDS011;66234;47.642;19.144;2023-10-09T17:20:02;26.00;;;14.70;;
77226;SDS011;66234;47.642;19.144;2023-10-09T17:23:12;34.25;;;20.40;;
77226;SDS011;66234;47.642;19.144;2023-10-09T17:26:15;22.65;;;12.40;;
77226;SDS011;66234;47.642;19.144;2023-10-09T17:29:25;19.10;;;11.60;;
77226;SDS011;66234;47.642;19.144;2023-10-09T17:32:29;22.00;;;12.00;;
77226;SDS011;66234;47.642;19.144;2023-10-09T17:35:34;22.13;;;13.07;;
77226;SDS011;66234;47.642;19.144;2023-10-09T17:38:38;20.00;;;12.20;;
77226;SDS011;66234;47.642;19.144;2023-10-09T17:41:41;24.35;;;13.60;;
77226;SDS011;66234;47.642;19.144;2023-10-09T17:44:43;20.17;;;10.00;;
77226;SDS011;66234;47.642;19.144;2023-10-09T17:47:46;13.47;;;6.60;;
77226;SDS011;66234;47.642;19.144;2023-10-09T17:50:55;11.18;;;5.63;;
77226;SDS011;66234;47.642;19.144;2023-10-09T17:53:58;11.00;;;6.20;;
77226;SDS011;66234;47.642;19.144;2023-10-09T17:57:01;11.05;;;6.45;;
77226;SDS011;66234;47.642;19.144;2023-10-09T18:00:04;10.07;;;5.00;;
77226;SDS011;66234;47.642;19.144;2023-10-09T18:03:10;7.27;;;4.27;;
77226;SDS011;66234;47.642;19.144;2023-10-09T18:06:17;10.57;;;4.30;;
77226;SDS011;66234;47.642;19.144;2023-10-09T18:09:21;6.78;;;3.97;;
77226;SDS011;66234;47.642;19.144;2023-10-09T18:12:24;10.80;;;5.50;;
77226;SDS011;66234;47.642;19.144;2023-10-09T18:15:28;12.33;;;5.50;;
77226;SDS011;66234;47.642;19.144;2023-10-09T18:18:36;12.23;;;5.60;;
77226;SDS011;66234;47.642;19.144;2023-10-09T18:21:39;12.88;;;5.82;;
77226;SDS011;66234;47.642;19.144;2023-10-09T18:24:45;14.18;;;6.60;;
77226;SDS011;66234;47.642;19.144;2023-10-09T18:27:48;13.32;;;6.40;;
77226;SDS011;66234;47.642;19.144;2023-10-09T18:30:52;12.27;;;6.97;;
77226;SDS011;66234;47.642;19.144;2023-10-09T18:33:55;13.23;;;6.00;;
77226;SDS011;66234;47.642;19.144;2023-10-09T18:36:58;20.40;;;9.65;;
77226;SDS011;66234;47.642;19.144;2023-10-09T18:40:01;12.27;;;6.80;;
77226;SDS011;66234;47.642;19.144;2023-10-09T18:43:08;11.55;;;6.22;;
77226;SDS011;66234;47.642;19.144;2023-10-09T18:46:11;27.53;;;17.07;;
77226;SDS011;66234;47.642;19.144;2023-10-09T18:49:14;13.50;;;8.07;;
77226;SDS011;66234;47.642;19.144;2023-10-09T18:52:18;9.57;;;6.20;;
77226;SDS011;66234;47.642;19.144;2023-10-09T18:55:21;11.25;;;6.93;;